sensor_id;sensor_type;location;lat;lon;timestamp;P1;durP1;ratioP1;P2;durP2;ratioP2
7807;SDS011;3949;49.254;8.894;2023-05-07T00:00:11;4.60;;;3.23;;
7807;SDS011;3949;49.254;8.894;2023-05-07T00:02:40;3.90;;;3.50;;
7807;SDS011;3949;49.254;8.894;2023-05-07T00:05:06;3.10;;;2.90;;
7807;SDS011;3949;49.254;8.894;2023-05-07T00:07:32;3.30;;;3.00;;
7807;SDS011;3949;49.254;8.894;2023-05-07T00:09:58;3.77;;;3.00;;
7807;SDS011;3949;49.254;8.894;2023-05-07T00:12:24;3.13;;;2.93;;
7807;SDS011;3949;49.254;8.894;2023-05-07T00:14:50;3.30;;;3.00;;
7807;SDS011;3949;49.254;8.894;2023-05-07T00:17:16;3.83;;;3.50;;
7807;SDS011;3949;49.254;8.894;2023-05-07T00:19:42;3.47;;;3.17;;
7807;SDS011;3949;49.254;8.894;2023-05-07T00:22:08;3.40;;;3.10;;
7807;SDS011;3949;49.254;8.894;2023-05-07T00:24:35;3.77;;;3.23;;
7807;SDS011;3949;49.254;8.894;2023-05-07T00:27:01;3.70;;;3.17;;
7807;SDS011;3949;49.254;8.894;2023-05-07T00:29:27;3.50;;;2.83;;
7807;SDS011;3949;49.254;8.894;2023-05-07T00:31:53;3.37;;;3.07;;
7807;SDS011;3949;49.254;8.894;2023-05-07T00:34:19;3.40;;;3.10;;
7807;SDS011;3949;49.254;8.894;2023-05-07T00:36:45;3.20;;;2.90;;
7807;SDS011;3949;49.254;8.894;2023-05-07T00:39:11;3.30;;;3.00;;
7807;SDS011;3949;49.254;8.894;2023-05-07T00:41:37;3.50;;;3.10;;
7807;SDS011;3949;49.254;8.894;2023-05-07T00:44:03;3.83;;;3.07;;
7807;SDS011;3949;49.254;8.894;2023-05-07T00:46:29;5.50;;;3.00;;
7807;SDS011;3949;49.254;8.894;2023-05-07T00:48:56;3.53;;;3.20;;
7807;SDS011;3949;49.254;8.894;2023-05-07T00:51:23;3.30;;;3.00;;
7807;SDS011;3949;49.254;8.894;2023-05-07T00:53:52;3.40;;;3.10;;
7807;SDS011;3949;49.254;8.894;2023-05-07T00:56:19;3.53;;;3.10;;
7807;SDS011;3949;49.254;8.894;2023-05-07T00:58:45;3.10;;;2.80;;
7807;SDS011;3949;49.254;8.894;2023-05-07T01:01:11;3.50;;;3.20;;
7807;SDS011;3949;49.254;8.894;2023-05-07T01:03:37;4.07;;;2.80;;
7807;SDS011;3949;49.254;8.894;2023-05-07T01:06:03;3.43;;;3.13;;
7807;SDS011;3949;49.254;8.894;2023-05-07T01:08:30;3.30;;;3.00;;
7807;SDS011;3949;49.254;8.894;2023-05-07T01:10:57;3.27;;;2.80;;
7807;SDS011;3949;49.254;8.894;2023-05-07T01:13:23;4.17;;;3.10;;
7807;SDS011;3949;49.254;8.894;2023-05-07T01:15:50;3.27;;;2.90;;
7807;SDS011;3949;49.254;8.894;2023-05-07T01:18:15;3.63;;;3.30;;
7807;SDS011;3949;49.254;8.894;2023-05-07T01:20:42;3.30;;;3.00;;
7807;SDS011;3949;49.254;8.894;2023-05-07T01:23:08;3.20;;;3.00;;
7807;SDS011;3949;49.254;8.894;2023-05-07T01:25:35;3.50;;;3.20;;
7807;SDS011;3949;49.254;8.894;2023-05-07T01:28:01;4.07;;;3.07;;
7807;SDS011;3949;49.254;8.894;2023-05-07T01:30:27;3.30;;;3.00;;
7807;SDS011;3949;49.254;8.894;2023-05-07T01:32:58;3.40;;;3.10;;
7807;SDS011;3949;49.254;8.894;2023-05-07T01:35:27;3.87;;;3.10;;
7807;SDS011;3949;49.254;8.894;2023-05-07T01:37:54;3.20;;;2.90;;
7807;SDS011;3949;49.254;8.894;2023-05-07T01:40:20;3.20;;;2.90;;
7807;SDS011;3949;49.254;8.894;2023-05-07T01:42:47;3.30;;;2.93;;
7807;SDS011;3949;49.254;8.894;2023-05-07T01:45:16;3.23;;;2.93;;
7807;SDS011;3949;49.254;8.894;2023-05-07T01:47:42;3.30;;;3.00;;
7807;SDS011;3949;49.254;8.894;2023-05-07T01:50:08;2.97;;;2.77;;
7807;SDS011;3949;49.254;8.894;2023-05-07T01:52:35;4.03;;;2.90;;
7807;SDS011;3949;49.254;8.894;2023-05-07T01:55:01;2.50;;;2.30;;
7807;SDS011;3949;49.254;8.894;2023-05-07T01:57:27;2.83;;;2.37;;
7807;SDS011;3949;49.254;8.894;2023-05-07T01:59:53;4.07;;;2.90;;
7807;SDS011;3949;49.254;8.894;2023-05-07T02:02:19;2.90;;;2.70;;
7807;SDS011;3949;49.254;8.894;2023-05-07T02:04:45;2.90;;;2.70;;
7807;SDS011;3949;49.254;8.894;2023-05-07T02:07:11;2.70;;;2.50;;
7807;SDS011;3949;49.254;8.894;2023-05-07T02:09:37;3.03;;;2.83;;
7807;SDS011;3949;49.254;8.894;2023-05-07T02:12:03;3.77;;;3.10;;
7807;SDS011;3949;49.254;8.894;2023-05-07T02:14:30;2.97;;;2.77;;
7807;SDS011;3949;49.254;8.894;2023-05-07T02:16:56;3.50;;;3.20;;
7807;SDS011;3949;49.254;8.894;2023-05-07T02:19:22;2.93;;;2.73;;
7807;SDS011;3949;49.254;8.894;2023-05-07T02:21:48;2.80;;;2.60;;
7807;SDS011;3949;49.254;8.894;2023-05-07T02:24:14;3.57;;;3.20;;
7807;SDS011;3949;49.254;8.894;2023-05-07T02:26:40;4.27;;;3.60;;
7807;SDS011;3949;49.254;8.894;2023-05-07T02:29:06;3.43;;;3.13;;
7807;SDS011;3949;49.254;8.894;2023-05-07T02:31:32;3.20;;;2.90;;
7807;SDS011;3949;49.254;8.894;2023-05-07T02:33:59;3.30;;;3.00;;
7807;SDS011;3949;49.254;8.894;2023-05-07T02:36:25;3.37;;;3.07;;
7807;SDS011;3949;49.254;8.894;2023-05-07T02:38:51;3.40;;;3.10;;
7807;SDS011;3949;49.254;8.894;2023-05-07T02:41:17;3.57;;;3.27;;
7807;SDS011;3949;49.254;8.894;2023-05-07T02:43:43;3.30;;;3.00;;
7807;SDS011;3949;49.254;8.894;2023-05-07T02:46:09;3.50;;;2.67;;
7807;SDS011;3949;49.254;8.894;2023-05-07T02:48:36;4.07;;;3.27;;
7807;SDS011;3949;49.254;8.894;2023-05-07T02:51:02;3.30;;;3.00;;
7807;SDS011;3949;49.254;8.894;2023-05-07T02:53:28;3.00;;;2.80;;
7807;SDS011;3949;49.254;8.894;2023-05-07T02:55:57;4.10;;;3.47;;
7807;SDS011;3949;49.254;8.894;2023-05-07T02:58:23;3.60;;;3.30;;
7807;SDS011;3949;49.254;8.894;2023-05-07T03:00:50;3.73;;;3.40;;
7807;SDS011;3949;49.254;8.894;2023-05-07T03:03:16;3.60;;;3.30;;
7807;SDS011;3949;49.254;8.894;2023-05-07T03:05:42;3.10;;;2.90;;
7807;SDS011;3949;49.254;8.894;2023-05-07T03:08:08;4.80;;;3.30;;
7807;SDS011;3949;49.254;8.894;2023-05-07T03:10:35;3.70;;;3.40;;
7807;SDS011;3949;49.254;8.894;2023-05-07T03:13:01;5.33;;;3.83;;
7807;SDS011;3949;49.254;8.894;2023-05-07T03:15:27;4.87;;;3.60;;
7807;SDS011;3949;49.254;8.894;2023-05-07T03:17:53;4.37;;;3.40;;
7807;SDS011;3949;49.254;8.894;2023-05-07T03:20:19;3.70;;;3.27;;
7807;SDS011;3949;49.254;8.894;2023-05-07T03:22:45;3.47;;;3.27;;
7807;SDS011;3949;49.254;8.894;2023-05-07T03:25:11;3.53;;;3.23;;
7807;SDS011;3949;49.254;8.894;2023-05-07T03:27:37;3.33;;;2.97;;
7807;SDS011;3949;49.254;8.894;2023-05-07T03:30:03;3.57;;;3.03;;
7807;SDS011;3949;49.254;8.894;2023-05-07T03:32:29;3.70;;;3.40;;
7807;SDS011;3949;49.254;8.894;2023-05-07T03:34:55;3.10;;;2.90;;
7807;SDS011;3949;49.254;8.894;2023-05-07T03:37:21;5.07;;;3.37;;
7807;SDS011;3949;49.254;8.894;2023-05-07T03:39:47;3.47;;;3.17;;
7807;SDS011;3949;49.254;8.894;2023-05-07T03:42:13;5.93;;;3.50;;
7807;SDS011;3949;49.254;8.894;2023-05-07T03:44:39;3.60;;;3.30;;
7807;SDS011;3949;49.254;8.894;2023-05-07T03:47:05;3.47;;;3.17;;
7807;SDS011;3949;49.254;8.894;2023-05-07T03:49:31;4.13;;;3.40;;
7807;SDS011;3949;49.254;8.894;2023-05-07T03:51:57;3.10;;;2.80;;
7807;SDS011;3949;49.254;8.894;2023-05-07T03:54:23;3.00;;;2.80;;
7807;SDS011;3949;49.254;8.894;2023-05-07T03:56:49;3.00;;;2.80;;
7807;SDS011;3949;49.254;8.894;2023-05-07T03:59:15;3.47;;;3.17;;
7807;SDS011;3949;49.254;8.894;2023-05-07T04:01:41;3.47;;;3.17;;
7807;SDS011;3949;49.254;8.894;2023-05-07T04:04:07;3.10;;;2.90;;
7807;SDS011;3949;49.254;8.894;2023-05-07T04:06:33;3.60;;;3.30;;
7807;SDS011;3949;49.254;8.894;2023-05-07T04:08:59;3.67;;;3.37;;
7807;SDS011;3949;49.254;8.894;2023-05-07T04:11:25;3.20;;;2.90;;
7807;SDS011;3949;49.254;8.894;2023-05-07T04:13:51;3.43;;;3.23;;
7807;SDS011;3949;49.254;8.894;2023-05-07T04:16:17;3.23;;;3.03;;
7807;SDS011;3949;49.254;8.894;2023-05-07T04:18:43;3.70;;;3.40;;
7807;SDS011;3949;49.254;8.894;2023-05-07T04:21:15;3.00;;;2.80;;
7807;SDS011;3949;49.254;8.894;2023-05-07T04:23:41;2.93;;;2.73;;
7807;SDS011;3949;49.254;8.894;2023-05-07T04:26:07;3.87;;;3.50;;
7807;SDS011;3949;49.254;8.894;2023-05-07T04:28:33;3.73;;;3.20;;
7807;SDS011;3949;49.254;8.894;2023-05-07T04:31:00;3.27;;;2.83;;
7807;SDS011;3949;49.254;8.894;2023-05-07T04:33:25;3.90;;;3.40;;
7807;SDS011;3949;49.254;8.894;2023-05-07T04:35:51;3.47;;;3.17;;
7807;SDS011;3949;49.254;8.894;2023-05-07T04:38:17;3.63;;;3.30;;
7807;SDS011;3949;49.254;8.894;2023-05-07T04:40:44;4.60;;;3.37;;
7807;SDS011;3949;49.254;8.894;2023-05-07T04:43:10;3.60;;;3.30;;
7807;SDS011;3949;49.254;8.894;2023-05-07T04:45:36;3.93;;;3.30;;
7807;SDS011;3949;49.254;8.894;2023-05-07T04:48:02;3.80;;;3.50;;
7807;SDS011;3949;49.254;8.894;2023-05-07T04:50:28;4.63;;;3.93;;
7807;SDS011;3949;49.254;8.894;2023-05-07T04:52:56;3.57;;;3.37;;
7807;SDS011;3949;49.254;8.894;2023-05-07T04:55:22;4.20;;;3.80;;
7807;SDS011;3949;49.254;8.894;2023-05-07T04:57:48;3.70;;;3.13;;
7807;SDS011;3949;49.254;8.894;2023-05-07T05:00:14;3.60;;;3.30;;
7807;SDS011;3949;49.254;8.894;2023-05-07T05:02:40;3.63;;;2.67;;
7807;SDS011;3949;49.254;8.894;2023-05-07T05:05:06;3.90;;;3.17;;
7807;SDS011;3949;49.254;8.894;2023-05-07T05:07:32;3.67;;;2.60;;
7807;SDS011;3949;49.254;8.894;2023-05-07T05:09:58;3.50;;;2.57;;
7807;SDS011;3949;49.254;8.894;2023-05-07T05:12:24;2.60;;;2.40;;
7807;SDS011;3949;49.254;8.894;2023-05-07T05:14:50;3.83;;;3.10;;
7807;SDS011;3949;49.254;8.894;2023-05-07T05:17:16;3.37;;;3.07;;
7807;SDS011;3949;49.254;8.894;2023-05-07T05:19:42;2.90;;;2.70;;
7807;SDS011;3949;49.254;8.894;2023-05-07T05:22:08;2.87;;;2.67;;
7807;SDS011;3949;49.254;8.894;2023-05-07T05:24:34;3.43;;;3.13;;
7807;SDS011;3949;49.254;8.894;2023-05-07T05:27:00;2.60;;;2.40;;
7807;SDS011;3949;49.254;8.894;2023-05-07T05:29:27;3.10;;;2.80;;
7807;SDS011;3949;49.254;8.894;2023-05-07T05:31:53;3.30;;;3.00;;
7807;SDS011;3949;49.254;8.894;2023-05-07T05:34:18;2.60;;;2.40;;
7807;SDS011;3949;49.254;8.894;2023-05-07T05:36:45;2.97;;;2.70;;
7807;SDS011;3949;49.254;8.894;2023-05-07T05:39:11;2.97;;;2.77;;
7807;SDS011;3949;49.254;8.894;2023-05-07T05:41:37;2.90;;;2.50;;
7807;SDS011;3949;49.254;8.894;2023-05-07T05:44:03;3.47;;;3.17;;
7807;SDS011;3949;49.254;8.894;2023-05-07T05:46:29;4.73;;;4.33;;
7807;SDS011;3949;49.254;8.894;2023-05-07T05:48:55;5.27;;;4.63;;
7807;SDS011;3949;49.254;8.894;2023-05-07T05:51:21;4.13;;;3.30;;
7807;SDS011;3949;49.254;8.894;2023-05-07T05:53:48;2.53;;;2.33;;
7807;SDS011;3949;49.254;8.894;2023-05-07T05:56:14;2.80;;;2.43;;
7807;SDS011;3949;49.254;8.894;2023-05-07T05:58:41;2.40;;;2.20;;
7807;SDS011;3949;49.254;8.894;2023-05-07T06:01:07;3.20;;;2.90;;
7807;SDS011;3949;49.254;8.894;2023-05-07T06:03:33;3.13;;;2.83;;
7807;SDS011;3949;49.254;8.894;2023-05-07T06:05:59;3.73;;;3.00;;
7807;SDS011;3949;49.254;8.894;2023-05-07T06:08:25;3.33;;;2.40;;
7807;SDS011;3949;49.254;8.894;2023-05-07T06:10:51;3.10;;;1.90;;
7807;SDS011;3949;49.254;8.894;2023-05-07T06:13:17;2.30;;;2.10;;
7807;SDS011;3949;49.254;8.894;2023-05-07T06:15:43;3.60;;;2.37;;
7807;SDS011;3949;49.254;8.894;2023-05-07T06:18:09;2.57;;;2.37;;
7807;SDS011;3949;49.254;8.894;2023-05-07T06:20:35;2.63;;;2.10;;
7807;SDS011;3949;49.254;8.894;2023-05-07T06:23:01;6.60;;;6.00;;
7807;SDS011;3949;49.254;8.894;2023-05-07T06:25:27;3.37;;;3.07;;
7807;SDS011;3949;49.254;8.894;2023-05-07T06:27:53;3.20;;;2.70;;
7807;SDS011;3949;49.254;8.894;2023-05-07T06:30:19;2.83;;;2.10;;
7807;SDS011;3949;49.254;8.894;2023-05-07T06:32:45;3.33;;;2.10;;
7807;SDS011;3949;49.254;8.894;2023-05-07T06:35:11;2.40;;;2.20;;
7807;SDS011;3949;49.254;8.894;2023-05-07T06:37:37;2.67;;;2.07;;
7807;SDS011;3949;49.254;8.894;2023-05-07T06:40:07;4.13;;;2.33;;
7807;SDS011;3949;49.254;8.894;2023-05-07T06:42:33;2.47;;;2.27;;
7807;SDS011;3949;49.254;8.894;2023-05-07T06:45:00;2.80;;;2.60;;
7807;SDS011;3949;49.254;8.894;2023-05-07T06:47:26;2.67;;;2.47;;
7807;SDS011;3949;49.254;8.894;2023-05-07T06:49:52;3.13;;;2.90;;
7807;SDS011;3949;49.254;8.894;2023-05-07T06:52:17;2.93;;;2.50;;
7807;SDS011;3949;49.254;8.894;2023-05-07T06:54:43;2.73;;;2.50;;
7807;SDS011;3949;49.254;8.894;2023-05-07T06:57:09;2.50;;;2.30;;
7807;SDS011;3949;49.254;8.894;2023-05-07T06:59:35;3.30;;;2.20;;
7807;SDS011;3949;49.254;8.894;2023-05-07T07:02:01;2.90;;;2.60;;
7807;SDS011;3949;49.254;8.894;2023-05-07T07:04:27;2.40;;;2.20;;
7807;SDS011;3949;49.254;8.894;2023-05-07T07:06:53;3.07;;;2.37;;
7807;SDS011;3949;49.254;8.894;2023-05-07T07:09:19;2.40;;;2.20;;
7807;SDS011;3949;49.254;8.894;2023-05-07T07:11:45;2.30;;;2.20;;
7807;SDS011;3949;49.254;8.894;2023-05-07T07:14:11;2.40;;;2.20;;
7807;SDS011;3949;49.254;8.894;2023-05-07T07:16:38;3.27;;;2.30;;
7807;SDS011;3949;49.254;8.894;2023-05-07T07:19:03;2.60;;;2.40;;
7807;SDS011;3949;49.254;8.894;2023-05-07T07:21:29;2.43;;;2.23;;
7807;SDS011;3949;49.254;8.894;2023-05-07T07:23:56;4.70;;;4.20;;
7807;SDS011;3949;49.254;8.894;2023-05-07T07:26:22;2.47;;;2.27;;
7807;SDS011;3949;49.254;8.894;2023-05-07T07:28:48;2.40;;;2.20;;
7807;SDS011;3949;49.254;8.894;2023-05-07T07:31:13;2.40;;;2.20;;
7807;SDS011;3949;49.254;8.894;2023-05-07T07:33:40;2.53;;;2.27;;
7807;SDS011;3949;49.254;8.894;2023-05-07T07:36:06;2.40;;;2.20;;
7807;SDS011;3949;49.254;8.894;2023-05-07T07:38:32;2.50;;;2.00;;
7807;SDS011;3949;49.254;8.894;2023-05-07T07:40:58;2.10;;;2.00;;
7807;SDS011;3949;49.254;8.894;2023-05-07T07:43:24;2.60;;;2.37;;
7807;SDS011;3949;49.254;8.894;2023-05-07T07:45:50;2.43;;;2.10;;
7807;SDS011;3949;49.254;8.894;2023-05-07T07:48:16;2.33;;;2.13;;
7807;SDS011;3949;49.254;8.894;2023-05-07T07:50:42;2.83;;;2.53;;
7807;SDS011;3949;49.254;8.894;2023-05-07T07:53:08;2.60;;;2.07;;
7807;SDS011;3949;49.254;8.894;2023-05-07T07:55:37;2.20;;;2.00;;
7807;SDS011;3949;49.254;8.894;2023-05-07T07:58:04;2.43;;;2.23;;
7807;SDS011;3949;49.254;8.894;2023-05-07T08:00:30;3.40;;;3.10;;
7807;SDS011;3949;49.254;8.894;2023-05-07T08:02:56;2.53;;;2.33;;
7807;SDS011;3949;49.254;8.894;2023-05-07T08:05:22;2.40;;;1.97;;
7807;SDS011;3949;49.254;8.894;2023-05-07T08:07:48;2.30;;;2.10;;
7807;SDS011;3949;49.254;8.894;2023-05-07T08:10:18;2.30;;;2.10;;
7807;SDS011;3949;49.254;8.894;2023-05-07T08:12:46;2.33;;;2.07;;
7807;SDS011;3949;49.254;8.894;2023-05-07T08:15:12;3.77;;;2.03;;
7807;SDS011;3949;49.254;8.894;2023-05-07T08:17:38;2.67;;;2.37;;
7807;SDS011;3949;49.254;8.894;2023-05-07T08:20:05;3.23;;;2.40;;
7807;SDS011;3949;49.254;8.894;2023-05-07T08:22:31;2.40;;;2.20;;
7807;SDS011;3949;49.254;8.894;2023-05-07T08:24:57;2.50;;;1.83;;
7807;SDS011;3949;49.254;8.894;2023-05-07T08:27:23;2.07;;;1.83;;
7807;SDS011;3949;49.254;8.894;2023-05-07T08:29:49;3.03;;;2.10;;
7807;SDS011;3949;49.254;8.894;2023-05-07T08:32:15;2.53;;;1.90;;
7807;SDS011;3949;49.254;8.894;2023-05-07T08:34:41;1.97;;;1.87;;
7807;SDS011;3949;49.254;8.894;2023-05-07T08:37:07;2.90;;;2.00;;
7807;SDS011;3949;49.254;8.894;2023-05-07T08:39:33;2.35;;;1.90;;
7807;SDS011;3949;49.254;8.894;2023-05-07T08:41:59;2.55;;;2.08;;
7807;SDS011;3949;49.254;8.894;2023-05-07T08:44:28;2.80;;;2.10;;
7807;SDS011;3949;49.254;8.894;2023-05-07T08:46:57;2.40;;;2.20;;
7807;SDS011;3949;49.254;8.894;2023-05-07T08:49:24;3.08;;;2.25;;
7807;SDS011;3949;49.254;8.894;2023-05-07T08:51:50;2.80;;;2.15;;
7807;SDS011;3949;49.254;8.894;2023-05-07T08:54:16;3.17;;;2.90;;
7807;SDS011;3949;49.254;8.894;2023-05-07T08:56:42;3.03;;;2.53;;
7807;SDS011;3949;49.254;8.894;2023-05-07T08:59:09;2.70;;;2.38;;
7807;SDS011;3949;49.254;8.894;2023-05-07T09:01:35;3.25;;;2.95;;
7807;SDS011;3949;49.254;8.894;2023-05-07T09:04:01;2.65;;;2.45;;
7807;SDS011;3949;49.254;8.894;2023-05-07T09:06:27;2.72;;;2.50;;
7807;SDS011;3949;49.254;8.894;2023-05-07T09:08:53;3.22;;;2.47;;
7807;SDS011;3949;49.254;8.894;2023-05-07T09:11:20;2.67;;;2.47;;
7807;SDS011;3949;49.254;8.894;2023-05-07T09:13:47;2.60;;;2.40;;
7807;SDS011;3949;49.254;8.894;2023-05-07T09:16:14;2.80;;;2.47;;
7807;SDS011;3949;49.254;8.894;2023-05-07T09:18:43;2.67;;;2.22;;
7807;SDS011;3949;49.254;8.894;2023-05-07T09:21:10;3.58;;;2.65;;
7807;SDS011;3949;49.254;8.894;2023-05-07T09:23:37;2.95;;;2.75;;
7807;SDS011;3949;49.254;8.894;2023-05-07T09:26:03;2.83;;;2.63;;
7807;SDS011;3949;49.254;8.894;2023-05-07T09:28:32;3.25;;;2.95;;
7807;SDS011;3949;49.254;8.894;2023-05-07T09:30:58;3.55;;;2.00;;
7807;SDS011;3949;49.254;8.894;2023-05-07T09:33:26;3.45;;;2.47;;
7807;SDS011;3949;49.254;8.894;2023-05-07T09:35:53;3.67;;;3.38;;
7807;SDS011;3949;49.254;8.894;2023-05-07T09:38:19;5.65;;;4.68;;
7807;SDS011;3949;49.254;8.894;2023-05-07T09:40:45;4.18;;;3.45;;
7807;SDS011;3949;49.254;8.894;2023-05-07T09:43:13;3.88;;;3.15;;
7807;SDS011;3949;49.254;8.894;2023-05-07T09:45:39;3.60;;;2.97;;
7807;SDS011;3949;49.254;8.894;2023-05-07T09:48:05;4.28;;;3.45;;
7807;SDS011;3949;49.254;8.894;2023-05-07T09:50:33;5.68;;;3.95;;
7807;SDS011;3949;49.254;8.894;2023-05-07T09:53:01;4.72;;;3.20;;
7807;SDS011;3949;49.254;8.894;2023-05-07T09:55:27;5.63;;;3.83;;
7807;SDS011;3949;49.254;8.894;2023-05-07T09:57:53;6.30;;;3.70;;
7807;SDS011;3949;49.254;8.894;2023-05-07T10:00:20;7.32;;;3.92;;
7807;SDS011;3949;49.254;8.894;2023-05-07T10:02:50;7.03;;;3.80;;
7807;SDS011;3949;49.254;8.894;2023-05-07T10:05:19;8.35;;;4.18;;
7807;SDS011;3949;49.254;8.894;2023-05-07T10:07:46;7.72;;;4.00;;
7807;SDS011;3949;49.254;8.894;2023-05-07T10:10:12;9.00;;;4.45;;
7807;SDS011;3949;49.254;8.894;2023-05-07T10:12:38;11.50;;;4.45;;
7807;SDS011;3949;49.254;8.894;2023-05-07T10:15:06;13.23;;;5.22;;
7807;SDS011;3949;49.254;8.894;2023-05-07T10:17:34;11.02;;;4.20;;
7807;SDS011;3949;49.254;8.894;2023-05-07T10:20:00;11.68;;;5.30;;
7807;SDS011;3949;49.254;8.894;2023-05-07T10:22:27;7.70;;;4.35;;
7807;SDS011;3949;49.254;8.894;2023-05-07T10:24:54;5.10;;;3.72;;
7807;SDS011;3949;49.254;8.894;2023-05-07T10:27:22;2.90;;;2.65;;
7807;SDS011;3949;49.254;8.894;2023-05-07T10:29:51;2.53;;;2.22;;
7807;SDS011;3949;49.254;8.894;2023-05-07T10:34:45;2.88;;;2.47;;
7807;SDS011;3949;49.254;8.894;2023-05-07T10:37:11;6.28;;;3.28;;
7807;SDS011;3949;49.254;8.894;2023-05-07T10:39:38;5.03;;;3.25;;
7807;SDS011;3949;49.254;8.894;2023-05-07T10:42:11;4.43;;;3.40;;
7807;SDS011;3949;49.254;8.894;2023-05-07T10:44:37;4.22;;;2.90;;
7807;SDS011;3949;49.254;8.894;2023-05-07T10:47:07;5.15;;;3.67;;
7807;SDS011;3949;49.254;8.894;2023-05-07T10:49:34;8.00;;;4.53;;
7807;SDS011;3949;49.254;8.894;2023-05-07T10:52:34;10.70;;;5.07;;
7807;SDS011;3949;49.254;8.894;2023-05-07T10:57:39;8.25;;;3.72;;
7807;SDS011;3949;49.254;8.894;2023-05-07T11:05:27;2.97;;;2.53;;
7807;SDS011;3949;49.254;8.894;2023-05-07T11:08:00;2.70;;;2.50;;
7807;SDS011;3949;49.254;8.894;2023-05-07T11:13:11;3.75;;;3.05;;
7807;SDS011;3949;49.254;8.894;2023-05-07T11:15:38;4.65;;;3.00;;
7807;SDS011;3949;49.254;8.894;2023-05-07T11:18:04;4.65;;;3.97;;
7807;SDS011;3949;49.254;8.894;2023-05-07T11:20:46;4.32;;;3.03;;
7807;SDS011;3949;49.254;8.894;2023-05-07T11:28:32;4.43;;;3.10;;
7807;SDS011;3949;49.254;8.894;2023-05-07T11:31:02;6.38;;;4.13;;
7807;SDS011;3949;49.254;8.894;2023-05-07T11:33:28;2.80;;;2.60;;
7807;SDS011;3949;49.254;8.894;2023-05-07T11:35:56;3.20;;;2.90;;
7807;SDS011;3949;49.254;8.894;2023-05-07T11:38:23;3.88;;;2.90;;
7807;SDS011;3949;49.254;8.894;2023-05-07T11:43:15;3.38;;;3.05;;
7807;SDS011;3949;49.254;8.894;2023-05-07T11:45:41;3.75;;;3.30;;
7807;SDS011;3949;49.254;8.894;2023-05-07T11:48:07;4.72;;;3.70;;
7807;SDS011;3949;49.254;8.894;2023-05-07T11:50:33;3.72;;;3.28;;
7807;SDS011;3949;49.254;8.894;2023-05-07T11:52:59;3.17;;;2.88;;
7807;SDS011;3949;49.254;8.894;2023-05-07T11:55:25;3.17;;;2.75;;
7807;SDS011;3949;49.254;8.894;2023-05-07T11:57:51;4.07;;;2.60;;
7807;SDS011;3949;49.254;8.894;2023-05-07T12:00:17;4.15;;;2.88;;
7807;SDS011;3949;49.254;8.894;2023-05-07T12:02:45;3.78;;;2.72;;
7807;SDS011;3949;49.254;8.894;2023-05-07T12:05:11;7.82;;;4.28;;
7807;SDS011;3949;49.254;8.894;2023-05-07T12:07:37;6.13;;;3.85;;
7807;SDS011;3949;49.254;8.894;2023-05-07T12:10:04;6.38;;;3.75;;
7807;SDS011;3949;49.254;8.894;2023-05-07T12:12:30;5.70;;;3.50;;
7807;SDS011;3949;49.254;8.894;2023-05-07T12:14:56;5.40;;;3.22;;
7807;SDS011;3949;49.254;8.894;2023-05-07T12:17:22;3.80;;;3.10;;
7807;SDS011;3949;49.254;8.894;2023-05-07T12:19:48;3.40;;;2.60;;
7807;SDS011;3949;49.254;8.894;2023-05-07T12:22:14;3.80;;;2.20;;
7807;SDS011;3949;49.254;8.894;2023-05-07T12:24:50;3.33;;;2.53;;
7807;SDS011;3949;49.254;8.894;2023-05-07T12:27:22;4.53;;;2.70;;
7807;SDS011;3949;49.254;8.894;2023-05-07T12:29:48;5.63;;;2.78;;
7807;SDS011;3949;49.254;8.894;2023-05-07T12:32:15;3.35;;;3.05;;
7807;SDS011;3949;49.254;8.894;2023-05-07T12:34:41;3.67;;;2.55;;
7807;SDS011;3949;49.254;8.894;2023-05-07T12:37:07;4.43;;;2.95;;
7807;SDS011;3949;49.254;8.894;2023-05-07T12:39:33;2.65;;;2.40;;
7807;SDS011;3949;49.254;8.894;2023-05-07T12:41:59;2.80;;;2.60;;
7807;SDS011;3949;49.254;8.894;2023-05-07T12:44:31;2.95;;;2.75;;
7807;SDS011;3949;49.254;8.894;2023-05-07T12:46:58;5.07;;;4.57;;
7807;SDS011;3949;49.254;8.894;2023-05-07T12:49:25;2.83;;;2.63;;
7807;SDS011;3949;49.254;8.894;2023-05-07T12:51:51;3.90;;;3.30;;
7807;SDS011;3949;49.254;8.894;2023-05-07T12:54:32;3.00;;;2.70;;
7807;SDS011;3949;49.254;8.894;2023-05-07T12:59:38;3.20;;;2.80;;
7807;SDS011;3949;49.254;8.894;2023-05-07T13:02:05;5.72;;;3.80;;
7807;SDS011;3949;49.254;8.894;2023-05-07T13:04:31;5.47;;;3.22;;
7807;SDS011;3949;49.254;8.894;2023-05-07T13:06:57;3.88;;;3.03;;
7807;SDS011;3949;49.254;8.894;2023-05-07T13:09:23;2.92;;;2.60;;
7807;SDS011;3949;49.254;8.894;2023-05-07T13:11:49;4.47;;;2.70;;
7807;SDS011;3949;49.254;8.894;2023-05-07T13:14:15;3.25;;;2.60;;
7807;SDS011;3949;49.254;8.894;2023-05-07T13:16:41;2.42;;;2.20;;
7807;SDS011;3949;49.254;8.894;2023-05-07T13:19:07;3.35;;;3.05;;
7807;SDS011;3949;49.254;8.894;2023-05-07T13:21:33;2.55;;;2.35;;
7807;SDS011;3949;49.254;8.894;2023-05-07T13:23:59;3.38;;;3.08;;
7807;SDS011;3949;49.254;8.894;2023-05-07T13:26:25;3.15;;;2.22;;
7807;SDS011;3949;49.254;8.894;2023-05-07T13:28:52;3.58;;;3.28;;
7807;SDS011;3949;49.254;8.894;2023-05-07T13:31:18;2.78;;;2.58;;
7807;SDS011;3949;49.254;8.894;2023-05-07T13:33:45;1.98;;;1.77;;
7807;SDS011;3949;49.254;8.894;2023-05-07T13:36:11;1.80;;;1.70;;
7807;SDS011;3949;49.254;8.894;2023-05-07T13:38:37;2.38;;;2.00;;
7807;SDS011;3949;49.254;8.894;2023-05-07T13:41:03;2.30;;;2.10;;
7807;SDS011;3949;49.254;8.894;2023-05-07T13:43:29;2.20;;;2.00;;
7807;SDS011;3949;49.254;8.894;2023-05-07T13:45:56;2.00;;;1.90;;
7807;SDS011;3949;49.254;8.894;2023-05-07T13:48:22;2.13;;;2.00;;
7807;SDS011;3949;49.254;8.894;2023-05-07T13:50:48;1.80;;;1.70;;
7807;SDS011;3949;49.254;8.894;2023-05-07T13:53:14;2.17;;;1.90;;
7807;SDS011;3949;49.254;8.894;2023-05-07T13:55:43;2.47;;;1.80;;
7807;SDS011;3949;49.254;8.894;2023-05-07T13:58:09;1.93;;;1.80;;
7807;SDS011;3949;49.254;8.894;2023-05-07T14:00:35;1.83;;;1.73;;
7807;SDS011;3949;49.254;8.894;2023-05-07T14:03:01;2.20;;;1.80;;
7807;SDS011;3949;49.254;8.894;2023-05-07T14:05:27;2.33;;;1.90;;
7807;SDS011;3949;49.254;8.894;2023-05-07T14:07:54;3.83;;;3.53;;
7807;SDS011;3949;49.254;8.894;2023-05-07T14:10:20;2.30;;;2.10;;
7807;SDS011;3949;49.254;8.894;2023-05-07T14:12:46;1.90;;;1.80;;
7807;SDS011;3949;49.254;8.894;2023-05-07T14:15:12;4.43;;;2.40;;
7807;SDS011;3949;49.254;8.894;2023-05-07T14:17:38;3.10;;;2.63;;
7807;SDS011;3949;49.254;8.894;2023-05-07T14:20:05;2.00;;;1.90;;
7807;SDS011;3949;49.254;8.894;2023-05-07T14:22:35;4.47;;;1.50;;
7807;SDS011;3949;49.254;8.894;2023-05-07T14:25:01;1.60;;;1.50;;
7807;SDS011;3949;49.254;8.894;2023-05-07T14:27:28;2.27;;;1.57;;
7807;SDS011;3949;49.254;8.894;2023-05-07T14:29:54;1.70;;;1.30;;
7807;SDS011;3949;49.254;8.894;2023-05-07T14:32:20;1.27;;;1.20;;
7807;SDS011;3949;49.254;8.894;2023-05-07T14:34:46;1.30;;;1.20;;
7807;SDS011;3949;49.254;8.894;2023-05-07T14:37:12;3.17;;;1.60;;
7807;SDS011;3949;49.254;8.894;2023-05-07T14:39:38;2.10;;;1.50;;
7807;SDS011;3949;49.254;8.894;2023-05-07T14:42:04;2.80;;;1.43;;
7807;SDS011;3949;49.254;8.894;2023-05-07T14:44:32;3.57;;;1.70;;
7807;SDS011;3949;49.254;8.894;2023-05-07T14:46:58;1.83;;;1.50;;
7807;SDS011;3949;49.254;8.894;2023-05-07T14:49:24;2.20;;;1.70;;
7807;SDS011;3949;49.254;8.894;2023-05-07T14:51:50;2.03;;;1.60;;
7807;SDS011;3949;49.254;8.894;2023-05-07T14:54:16;2.97;;;1.70;;
7807;SDS011;3949;49.254;8.894;2023-05-07T14:56:42;2.93;;;1.93;;
7807;SDS011;3949;49.254;8.894;2023-05-07T14:59:08;3.30;;;1.80;;
7807;SDS011;3949;49.254;8.894;2023-05-07T15:01:35;2.07;;;1.80;;
7807;SDS011;3949;49.254;8.894;2023-05-07T15:04:03;3.47;;;2.60;;
7807;SDS011;3949;49.254;8.894;2023-05-07T15:06:29;2.60;;;2.17;;
7807;SDS011;3949;49.254;8.894;2023-05-07T15:08:55;3.50;;;2.20;;
7807;SDS011;3949;49.254;8.894;2023-05-07T15:11:21;2.83;;;1.90;;
7807;SDS011;3949;49.254;8.894;2023-05-07T15:13:47;16.27;;;12.67;;
7807;SDS011;3949;49.254;8.894;2023-05-07T15:16:13;4.43;;;3.20;;
7807;SDS011;3949;49.254;8.894;2023-05-07T15:18:39;3.57;;;2.30;;
7807;SDS011;3949;49.254;8.894;2023-05-07T15:21:05;4.60;;;2.47;;
7807;SDS011;3949;49.254;8.894;2023-05-07T15:23:31;5.03;;;2.93;;
7807;SDS011;3949;49.254;8.894;2023-05-07T15:25:57;2.90;;;2.13;;
7807;SDS011;3949;49.254;8.894;2023-05-07T15:28:24;6.13;;;2.60;;
7807;SDS011;3949;49.254;8.894;2023-05-07T15:30:50;4.33;;;2.53;;
7807;SDS011;3949;49.254;8.894;2023-05-07T15:33:16;3.93;;;2.60;;